Time;durP1;ratioP1;P1;durP2;ratioP2;P2;SDS_P1;SDS_P2;PMS_P1;PMS_P2;Temp;Humidity;BMP_temperature;BMP_pressure;BME280_temperature;BME280_humidity;BME280_pressure;Samples;Min_cycle;Max_cycle;Signal;HPM_P1;HPM_P2
2022/03/12 00:00:52;;;;;;;11.23;6.80;;;;;;;;;;5034328;28;20372;-64
2022/03/12 00:03:18;;;;;;;10.68;6.20;;;12.00;67.80;;;;;;5034058;28;20091;-64
2022/03/12 00:05:52;;;;;;;11.68;6.75;;;12.70;68.40;;;;;;5033904;28;20037;-64
2022/03/12 00:08:42;;;;;;;11.48;6.35;;;12.30;63.70;;;;;;5033771;28;20039;-64
2022/03/12 00:11:27;;;;;;;14.50;7.00;;;12.60;65.60;;;;;;5034215;28;20046;-64
2022/03/12 00:13:54;;;;;;;10.98;7.00;;;12.10;65.40;;;;;;5034463;28;20146;-63
2022/03/12 00:16:23;;;;;;;11.98;7.10;;;12.30;68.10;;;;;;5033848;28;20049;-64
2022/03/12 00:18:55;;;;;;;10.98;6.63;;;12.30;68.00;;;;;;5034076;28;20041;-61
2022/03/12 00:21:24;;;;;;;10.32;6.72;;;12.20;68.00;;;;;;5033864;28;20073;-61
2022/03/12 00:23:50;;;;;;;11.23;6.95;;;12.60;68.20;;;;;;5033978;28;20053;-61
2022/03/12 00:26:17;;;;;;;10.52;6.80;;;12.20;65.40;;;;;;5015072;28;20042;-64
2022/03/12 00:28:43;;;;;;;10.70;6.50;;;12.60;68.30;;;;;;5033798;28;20045;-61
2022/03/12 00:31:10;;;;;;;11.10;6.40;;;12.20;65.40;;;;;;5033761;28;20048;-61
2022/03/12 00:33:36;;;;;;;13.48;7.15;;;12.30;68.10;;;;;;5015502;28;20045;-61
2022/03/12 00:36:02;;;;;;;12.68;6.95;;;12.30;68.40;;;;;;5015670;28;20057;-61
2022/03/12 00:38:28;;;;;;;9.68;6.82;;;12.20;68.00;;;;;;5016100;28;20041;-64
2022/03/12 00:40:54;;;;;;;10.57;6.80;;;12.20;68.10;;;;;;5041717;28;20476;-64
2022/03/12 00:43:20;;;;;;;11.32;7.38;;;12.20;68.10;;;;;;4999096;28;20135;-64
2022/03/12 00:45:46;;;;;;;12.63;6.70;;;12.50;68.30;;;;;;5033120;28;20039;-64
2022/03/12 00:48:12;;;;;;;11.13;6.40;;;12.10;68.20;;;;;;5033228;28;20045;-63
2022/03/12 00:50:38;;;;;;;11.38;6.90;;;12.10;68.00;;;;;;5032686;28;20041;-64
2022/03/12 00:53:04;;;;;;;10.88;6.50;;;12.20;68.10;;;;;;5032947;28;20129;-64
2022/03/12 00:55:29;;;;;;;13.98;6.65;;;12.00;68.20;;;;;;5033117;28;20057;-64
2022/03/12 00:57:56;;;;;;;10.43;6.47;;;;;;;;;;5015328;28;20075;-64
2022/03/12 01:00:22;;;;;;;12.18;7.00;;;12.30;68.20;;;;;;5015120;28;20084;-64
2022/03/12 01:02:48;;;;;;;10.60;6.13;;;12.40;65.70;;;;;;5018095;28;20042;-64
2022/03/12 01:05:16;;;;;;;13.60;7.10;;;12.20;68.20;;;;;;5032890;28;20044;-64
2022/03/12 01:07:42;;;;;;;10.05;6.30;;;12.00;64.60;;;;;;5033513;28;20137;-68
2022/03/12 01:10:08;;;;;;;10.15;6.50;;;11.90;64.10;;;;;;5032308;28;20163;-62
2022/03/12 01:12:34;;;;;;;11.73;6.97;;;12.30;68.50;;;;;;5032968;28;20120;-61
2022/03/12 01:15:01;;;;;;;12.52;6.75;;;11.90;65.60;;;;;;5032866;28;20033;-61
2022/03/12 01:17:27;;;;;;;11.55;7.38;;;12.20;67.80;;;;;;5015010;28;20179;-62
2022/03/12 01:19:52;;;;;;;10.65;6.22;;;12.20;68.60;;;;;;5015064;28;20076;-61
2022/03/12 01:22:20;;;;;;;11.32;6.78;;;12.20;68.30;;;;;;5032612;28;20150;-64
2022/03/12 01:24:47;;;;;;;10.32;6.68;;;12.10;68.30;;;;;;5014905;28;20045;-63
2022/03/12 01:27:15;;;;;;;10.35;6.53;;;12.20;65.60;;;;;;5034955;28;20077;-64
2022/03/12 01:29:41;;;;;;;9.85;6.38;;;12.30;68.30;;;;;;5037007;28;20095;-64
2022/03/12 01:32:10;;;;;;;10.57;6.30;;;12.10;65.70;;;;;;5036908;28;20120;-64
2022/03/12 01:34:36;;;;;;;11.77;6.53;;;12.10;68.50;;;;;;5037066;28;20502;-63
2022/03/12 01:37:02;;;;;;;9.30;6.03;;;;;;;;;;5036483;28;20037;-63
2022/03/12 01:39:29;;;;;;;11.35;6.63;;;;;;;;;;5037426;28;20114;-64
2022/03/12 01:41:54;;;;;;;11.00;6.43;;;12.00;68.20;;;;;;5036452;28;20068;-64
2022/03/12 01:44:20;;;;;;;10.88;7.10;;;12.10;68.30;;;;;;5019413;28;20503;-64
2022/03/12 01:46:47;;;;;;;12.60;7.38;;;12.10;68.30;;;;;;5034039;28;20117;-64
2022/03/12 01:49:16;;;;;;;10.18;6.68;;;12.10;65.30;;;;;;5020106;28;20045;-64
2022/03/12 01:51:44;;;;;;;10.25;6.38;;;12.10;68.30;;;;;;5039186;28;20080;-63
2022/03/12 01:54:10;;;;;;;10.07;6.55;;;12.10;68.40;;;;;;5037143;28;20519;-64
2022/03/12 01:56:37;;;;;;;10.43;6.07;;;12.30;65.80;;;;;;5036724;28;20045;-64
2022/03/12 01:59:03;;;;;;;9.25;6.25;;;12.20;66.40;;;;;;5036347;28;20053;-65
2022/03/12 02:01:29;;;;;;;11.88;6.82;;;12.10;68.50;;;;;;5036794;28;20102;-62
2022/03/12 02:03:56;;;;;;;12.52;6.55;;;11.90;68.20;;;;;;5036997;28;20152;-61
2022/03/12 02:06:22;;;;;;;11.85;6.38;;;12.00;68.30;;;;;;5036151;28;20069;-64
2022/03/12 02:08:49;;;;;;;10.27;6.00;;;11.90;65.70;;;;;;5036098;28;20436;-64
2022/03/12 02:11:27;;;;;;;13.00;6.32;;;;;;;;;;5036161;28;20394;-63
2022/03/12 02:14:00;;;;;;;10.88;7.03;;;;;;;;;;5036491;28;20045;-64
2022/03/12 02:16:26;;;;;;;;;;;12.20;65.80;;;;;;5017846;28;20069;-63
2022/03/12 02:18:51;;;;;;;11.43;6.15;;;12.00;65.70;;;;;;5035860;28;19921;-64
2022/03/12 02:21:38;;;;;;;9.77;5.97;;;12.20;65.60;;;;;;5035778;28;20037;-66
2022/03/12 02:24:15;;;;;;;9.07;6.13;;;12.20;65.60;;;;;;5034940;28;20044;-64
2022/03/12 02:26:42;;;;;;;10.73;6.63;;;;;;;;;;5036044;28;20045;-64
2022/03/12 02:29:11;;;;;;;9.98;6.50;;;12.20;68.50;;;;;;5001937;28;20053;-64
2022/03/12 02:31:37;;;;;;;9.20;6.20;;;12.10;68.50;;;;;;5036095;28;20041;-64
2022/03/12 02:34:06;;;;;;;11.10;6.25;;;12.10;65.90;;;;;;5035729;28;20052;-63
2022/03/12 02:36:31;;;;;;;11.68;6.60;;;11.80;68.40;;;;;;5035066;28;20049;-64
2022/03/12 02:39:04;;;;;;;11.65;6.25;;;12.00;68.50;;;;;;5034505;28;20121;-64
2022/03/12 02:41:30;;;;;;;10.35;6.10;;;12.00;68.30;;;;;;5034591;28;20057;-64
2022/03/12 02:43:56;;;;;;;10.93;6.85;;;12.30;68.50;;;;;;5036194;28;20115;-65
2022/03/12 02:46:27;;;;;;;10.23;6.18;;;12.20;68.50;;;;;;5035503;28;20523;-62
2022/03/12 02:48:53;;;;;;;10.70;6.18;;;12.10;68.30;;;;;;5035531;28;20234;-64
2022/03/12 02:51:23;;;;;;;11.18;6.53;;;12.00;68.30;;;;;;5035668;28;20037;-64
2022/03/12 02:53:56;;;;;;;8.93;5.82;;;12.10;68.30;;;;;;5035487;28;20041;-64
2022/03/12 02:56:23;;;;;;;13.77;6.05;;;12.10;65.30;;;;;;5035617;28;20049;-64
2022/03/12 02:58:49;;;;;;;9.27;6.30;;;12.10;68.30;;;;;;5035480;28;20557;-65
2022/03/12 03:01:15;;;;;;;10.25;5.60;;;12.20;68.30;;;;;;5036186;28;20037;-64
2022/03/12 03:03:44;;;;;;;10.25;6.28;;;12.20;68.30;;;;;;5035012;28;20084;-64
2022/03/12 03:06:13;;;;;;;11.02;5.97;;;;;;;;;;5034638;28;20045;-64
2022/03/12 03:08:39;;;;;;;11.52;5.95;;;12.30;68.40;;;;;;5035397;28;20042;-65
2022/03/12 03:11:13;;;;;;;10.23;6.22;;;11.90;64.50;;;;;;5017378;28;20092;-64
2022/03/12 03:13:42;;;;;;;12.32;6.05;;;12.20;65.70;;;;;;5034808;28;20053;-64
2022/03/12 03:16:22;;;;;;;10.15;5.93;;;12.10;68.30;;;;;;5034679;28;20549;-64
2022/03/12 03:18:52;;;;;;;9.85;6.05;;;12.10;63.60;;;;;;5016541;28;20530;-65
2022/03/12 03:21:19;;;;;;;9.65;5.75;;;;;;;;;;5035352;28;20072;-64
2022/03/12 03:23:45;;;;;;;9.60;6.10;;;12.00;65.50;;;;;;5017867;28;20041;-64
2022/03/12 03:26:12;;;;;;;8.90;5.82;;;12.00;68.20;;;;;;5034828;28;20437;-65
2022/03/12 03:28:37;;;;;;;11.65;6.10;;;12.10;68.30;;;;;;5035092;28;20183;-65
2022/03/12 03:31:06;;;;;;;10.27;5.78;;;12.00;65.60;;;;;;5034860;28;20080;-64
2022/03/12 03:33:33;;;;;;;9.80;6.03;;;12.00;68.10;;;;;;5033913;28;20053;-65
2022/03/12 03:35:58;;;;;;;10.05;6.00;;;11.90;68.20;;;;;;5034555;28;20037;-66
2022/03/12 03:38:24;;;;;;;12.68;6.15;;;11.80;68.10;;;;;;5017055;28;20047;-65
2022/03/12 03:40:50;;;;;;;11.45;5.88;;;12.20;68.40;;;;;;5034205;28;20060;-64
2022/03/12 03:43:19;;;;;;;8.68;5.22;;;12.10;65.20;;;;;;5034616;28;20095;-64
2022/03/12 03:45:47;;;;;;;9.82;6.03;;;11.90;65.00;;;;;;5016507;28;20041;-64
2022/03/12 03:48:18;;;;;;;9.50;6.03;;;12.10;68.30;;;;;;5035050;28;20042;-66
2022/03/12 03:50:45;;;;;;;9.10;5.72;;;12.10;68.40;;;;;;5033513;28;20084;-64
2022/03/12 03:53:13;;;;;;;10.10;5.78;;;12.00;68.20;;;;;;5034609;28;20049;-64
2022/03/12 03:55:39;;;;;;;11.57;5.95;;;11.90;68.10;;;;;;5033834;28;20041;-64
2022/03/12 03:58:05;;;;;;;9.40;5.50;;;12.10;68.30;;;;;;5034319;28;20046;-64
2022/03/12 04:00:31;;;;;;;10.43;5.78;;;11.90;68.30;;;;;;5016186;28;20055;-64
2022/03/12 04:03:04;;;;;;;9.25;5.88;;;12.00;68.40;;;;;;5034411;28;20569;-64
2022/03/12 04:05:35;;;;;;;8.77;5.70;;;12.00;68.20;;;;;;5033968;28;20049;-63
2022/03/12 04:08:02;;;;;;;10.32;6.03;;;;;;;;;;5037301;28;20045;-64
2022/03/12 04:10:28;;;;;;;9.30;5.65;;;11.70;68.20;;;;;;5034034;28;20112;-66
2022/03/12 04:12:55;;;;;;;8.80;5.55;;;12.10;68.40;;;;;;5033962;28;20491;-64
2022/03/12 04:15:21;;;;;;;10.07;5.80;;;12.20;68.30;;;;;;5033658;28;20431;-64
2022/03/12 04:17:50;;;;;;;9.13;5.93;;;12.00;65.70;;;;;;5016151;28;20045;-63
2022/03/12 04:20:18;;;;;;;10.18;5.78;;;12.00;66.70;;;;;;5015947;28;20053;-64
2022/03/12 04:22:45;;;;;;;9.10;6.07;;;12.30;65.90;;;;;;5034467;28;20045;-64
2022/03/12 04:25:12;;;;;;;10.10;5.90;;;12.00;68.20;;;;;;5033150;28;20033;-64
2022/03/12 04:27:38;;;;;;;10.13;5.68;;;11.90;68.40;;;;;;5032882;28;20107;-63
2022/03/12 04:30:06;;;;;;;9.50;5.95;;;;;;;;;;5033639;28;20041;-64
2022/03/12 04:32:32;;;;;;;10.95;6.03;;;11.80;68.20;;;;;;5032928;28;20057;-64
2022/03/12 04:34:57;;;;;;;11.07;5.55;;;12.00;68.70;;;;;;5034227;28;20050;-66
2022/03/12 04:37:23;;;;;;;10.20;5.90;;;12.10;68.40;;;;;;5032923;28;20045;-61
2022/03/12 04:39:49;;;;;;;10.82;5.65;;;;;;;;;;5015508;28;20144;-61
2022/03/12 04:42:21;;;;;;;10.57;5.25;;;12.30;64.30;;;;;;5027910;28;20045;-61
2022/03/12 04:44:48;;;;;;;9.27;5.10;;;12.00;68.10;;;;;;5033168;28;20096;-64
2022/03/12 04:47:14;;;;;;;9.20;5.43;;;12.10;68.40;;;;;;5033690;28;20037;-63
2022/03/12 04:49:39;;;;;;;8.32;5.00;;;12.00;68.40;;;;;;5033462;28;20462;-65
2022/03/12 04:52:06;;;;;;;8.73;5.65;;;11.90;68.60;;;;;;5033438;28;20125;-65
2022/03/12 04:54:32;;;;;;;9.48;5.97;;;11.90;68.20;;;;;;5015611;28;20057;-63
2022/03/12 04:56:58;;;;;;;8.63;5.55;;;11.60;68.10;;;;;;5032839;28;20056;-63
2022/03/12 04:59:24;;;;;;;9.18;5.50;;;11.90;68.20;;;;;;5033059;28;20067;-65
2022/03/12 05:01:49;;;;;;;9.23;5.28;;;11.90;68.30;;;;;;5032279;28;20045;-65
2022/03/12 05:04:15;;;;;;;10.52;5.55;;;12.00;68.40;;;;;;5033095;28;20041;-64
2022/03/12 05:06:41;;;;;;;9.48;5.90;;;11.90;65.70;;;;;;5033197;28;20514;-64
2022/03/12 05:09:07;;;;;;;9.95;6.03;;;12.00;68.30;;;;;;5033370;28;20048;-64
2022/03/12 05:11:33;;;;;;;10.60;6.05;;;12.00;65.60;;;;;;5032243;28;20045;-64
2022/03/12 05:13:59;;;;;;;9.73;5.50;;;11.70;68.10;;;;;;5033058;28;20483;-64
2022/03/12 05:16:28;;;;;;;9.75;5.63;;;12.00;68.40;;;;;;5032839;28;20111;-65
2022/03/12 05:18:58;;;;;;;8.38;5.80;;;;;;;;;;5038577;28;20427;-64
2022/03/12 05:21:24;;;;;;;8.23;5.00;;;12.00;68.30;;;;;;5032026;28;20052;-65
2022/03/12 05:23:49;;;;;;;10.63;5.75;;;11.90;65.70;;;;;;5015179;28;20054;-64
2022/03/12 05:26:15;;;;;;;10.55;5.75;;;12.10;68.60;;;;;;5032992;28;20128;-64
2022/03/12 05:28:41;;;;;;;8.20;5.20;;;11.60;67.10;;;;;;5031373;28;20072;-64
2022/03/12 05:31:09;;;;;;;9.85;5.45;;;12.00;68.30;;;;;;5015417;28;20053;-65
2022/03/12 05:33:35;;;;;;;9.55;6.13;;;11.80;68.30;;;;;;5032648;28;20053;-64
2022/03/12 05:36:01;;;;;;;10.05;5.40;;;11.90;68.30;;;;;;5033123;28;20041;-65
2022/03/12 05:38:31;;;;;;;9.13;5.82;;;11.90;68.40;;;;;;4982465;28;20049;-64
2022/03/12 05:41:00;;;;;;;8.23;5.40;;;12.00;63.70;;;;;;5015513;28;20084;-64
2022/03/12 05:43:26;;;;;;;8.63;5.40;;;11.90;68.20;;;;;;5014259;28;20053;-63
2022/03/12 05:45:52;;;;;;;9.43;5.60;;;12.00;68.40;;;;;;4998377;28;20403;-65
2022/03/12 05:48:18;;;;;;;8.63;5.05;;;11.60;68.20;;;;;;5032491;28;20038;-64
2022/03/12 05:50:46;;;;;;;9.50;5.55;;;11.80;68.20;;;;;;4982752;28;20037;-63
2022/03/12 05:53:14;;;;;;;8.50;5.53;;;12.10;68.50;;;;;;5016192;28;20491;-64
2022/03/12 05:55:40;;;;;;;9.00;5.40;;;11.90;68.30;;;;;;5001730;28;20411;-65
2022/03/12 05:58:06;;;;;;;8.80;5.60;;;11.80;68.30;;;;;;4998670;28;20045;-63
2022/03/12 06:00:33;;;;;;;10.52;5.40;;;;;;;;;;4982191;28;20135;-65
2022/03/12 06:02:59;;;;;;;8.70;5.10;;;11.90;68.40;;;;;;5014963;28;20054;-64
2022/03/12 06:05:25;;;;;;;10.00;5.55;;;;;;;;;;5007267;28;20056;-66
2022/03/12 06:07:52;;;;;;;8.10;5.22;;;11.80;68.40;;;;;;5014776;28;20077;-63
2022/03/12 06:10:19;;;;;;;8.32;5.45;;;11.50;68.20;;;;;;5032412;28;20116;-66
2022/03/12 06:12:46;;;;;;;9.77;5.28;;;11.80;68.10;;;;;;5033614;28;20085;-66
2022/03/12 06:15:14;;;;;;;8.57;5.30;;;11.60;68.30;;;;;;5036282;28;20042;-64
2022/03/12 06:17:40;;;;;;;10.73;5.43;;;12.00;68.40;;;;;;5035579;28;20080;-64
2022/03/12 06:20:08;;;;;;;9.73;5.47;;;11.70;68.30;;;;;;5036691;28;20080;-65
2022/03/12 06:22:34;;;;;;;10.57;5.47;;;12.10;68.40;;;;;;5035441;28;20407;-63
2022/03/12 06:25:00;;;;;;;8.20;4.78;;;11.40;68.10;;;;;;5035717;28;20435;-64
2022/03/12 06:27:26;;;;;;;10.05;5.75;;;12.00;68.40;;;;;;5035224;28;20183;-65
2022/03/12 06:29:52;;;;;;;8.63;5.18;;;11.70;68.30;;;;;;5019009;28;20052;-64
2022/03/12 06:32:18;;;;;;;9.13;5.68;;;11.90;68.60;;;;;;5035603;28;20432;-66
2022/03/12 06:34:45;;;;;;;9.48;5.65;;;;;;;;;;5036292;28;20040;-64
2022/03/12 06:37:11;;;;;;;10.70;5.43;;;11.90;68.30;;;;;;5034810;28;20049;-64
2022/03/12 06:39:37;;;;;;;8.60;5.22;;;11.70;68.10;;;;;;5034727;28;20037;-63
2022/03/12 06:42:03;;;;;;;9.40;5.22;;;11.80;68.20;;;;;;5035265;28;20068;-65
2022/03/12 06:44:32;;;;;;;13.48;6.20;;;12.00;68.40;;;;;;5017977;28;20084;-64
2022/03/12 06:47:01;;;;;;;9.35;5.32;;;11.80;68.00;;;;;;5001405;28;20080;-65
2022/03/12 06:49:28;;;;;;;9.32;5.10;;;11.90;68.10;;;;;;5035450;28;20057;-64
2022/03/12 06:51:54;;;;;;;8.75;5.43;;;12.00;68.20;;;;;;5035013;28;20128;-64
2022/03/12 06:54:23;;;;;;;11.00;5.80;;;11.90;68.50;;;;;;5035418;28;20045;-65
2022/03/12 06:56:54;;;;;;;8.60;5.28;;;11.80;68.00;;;;;;5033990;28;20041;-63
2022/03/12 06:59:20;;;;;;;8.10;5.25;;;11.70;68.40;;;;;;5007606;28;20046;-63
2022/03/12 07:01:46;;;;;;;8.77;5.22;;;11.80;68.10;;;;;;5026102;28;20045;-64
2022/03/12 07:04:11;;;;;;;9.93;5.32;;;11.70;68.00;;;;;;5006354;28;20510;-64
2022/03/12 07:06:37;;;;;;;8.45;5.28;;;11.70;68.00;;;;;;5012009;28;20041;-64
2022/03/12 07:09:03;;;;;;;11.20;5.40;;;;;;;;;;5034593;28;20034;-64
2022/03/12 07:11:30;;;;;;;8.88;5.40;;;11.80;68.20;;;;;;5035187;28;20057;-61
2022/03/12 07:13:56;;;;;;;8.60;5.18;;;11.80;68.30;;;;;;5035582;28;20107;-61
2022/03/12 07:16:22;;;;;;;7.68;5.38;;;11.80;68.10;;;;;;5016482;28;20415;-64
2022/03/12 07:18:48;;;;;;;9.65;6.05;;;11.70;68.10;;;;;;5034943;28;20045;-64
2022/03/12 07:21:14;;;;;;;9.18;5.15;;;11.70;68.20;;;;;;5034642;28;20041;-65
2022/03/12 07:23:39;;;;;;;11.45;5.15;;;11.80;65.70;;;;;;5035292;28;20172;-65
2022/03/12 07:26:05;;;;;;;8.27;5.25;;;11.60;68.20;;;;;;5016202;28;20519;-66
2022/03/12 07:28:32;;;;;;;7.78;5.00;;;11.60;68.50;;;;;;5035016;28;20053;-67
2022/03/12 07:30:59;;;;;;;8.70;5.25;;;11.90;65.50;;;;;;5016109;28;20089;-62
2022/03/12 07:33:24;;;;;;;9.45;5.45;;;11.30;68.10;;;;;;5017418;28;20041;-63
2022/03/12 07:35:50;;;;;;;8.18;5.47;;;11.80;68.40;;;;;;5019167;28;20049;-64
2022/03/12 07:38:16;;;;;;;8.88;5.30;;;11.90;68.50;;;;;;5034164;28;20042;-63
2022/03/12 07:40:42;;;;;;;9.80;4.93;;;11.60;68.40;;;;;;5024556;28;20052;-63
2022/03/12 07:43:08;;;;;;;10.20;5.57;;;11.40;68.10;;;;;;5018639;28;20053;-65
2022/03/12 07:45:34;;;;;;;8.98;5.20;;;11.70;68.20;;;;;;5033378;28;20133;-64
2022/03/12 07:48:00;;;;;;;8.18;5.30;;;11.60;68.30;;;;;;5034458;28;20045;-64
2022/03/12 07:50:29;;;;;;;9.00;5.25;;;11.60;68.40;;;;;;5034659;28;20045;-64
2022/03/12 07:52:55;;;;;;;8.65;4.80;;;11.30;68.40;;;;;;5034521;28;20049;-61
2022/03/12 07:55:21;;;;;;;11.82;5.38;;;;;;;;;;5033433;28;20048;-62
2022/03/12 07:57:47;;;;;;;9.40;4.97;;;11.60;68.40;;;;;;5016041;28;20056;-62
2022/03/12 08:00:14;;;;;;;10.55;5.55;;;11.80;65.50;;;;;;5035319;28;20050;-66
2022/03/12 08:02:41;;;;;;;10.30;5.30;;;11.80;68.40;;;;;;5034237;28;20427;-64
2022/03/12 08:05:07;;;;;;;9.05;5.40;;;11.80;68.50;;;;;;4998488;28;20046;-63
2022/03/12 08:07:33;;;;;;;10.00;5.30;;;11.20;68.20;;;;;;5033794;28;20041;-65
2022/03/12 08:09:59;;;;;;;9.65;5.25;;;11.80;68.50;;;;;;5034208;28;20091;-64
2022/03/12 08:12:27;;;;;;;10.55;5.60;;;11.80;68.90;;;;;;5034379;28;20045;-69
2022/03/12 08:14:53;;;;;;;9.55;5.47;;;12.10;68.80;;;;;;5033691;28;20073;-64
2022/03/12 08:17:19;;;;;;;8.23;5.13;;;12.00;68.80;;;;;;5034103;28;20080;-63
2022/03/12 08:19:46;;;;;;;12.00;5.35;;;12.20;68.30;;;;;;5034065;28;20175;-61
2022/03/12 08:22:12;;;;;;;11.27;5.47;;;12.40;68.30;;;;;;5034206;28;20110;-68
2022/03/12 08:24:38;;;;;;;8.70;5.63;;;12.40;68.30;;;;;;5033507;28;20045;-67
2022/03/12 08:27:05;;;;;;;9.48;5.95;;;12.70;68.20;;;;;;5033966;28;20049;-69
2022/03/12 08:29:31;;;;;;;8.68;5.45;;;12.70;68.00;;;;;;5034184;28;20513;-65
2022/03/12 08:31:57;;;;;;;10.50;5.57;;;13.00;68.00;;;;;;5034234;28;20038;-62
2022/03/12 08:34:23;;;;;;;10.07;5.38;;;13.20;67.90;;;;;;5033854;28;20033;-64
2022/03/12 08:36:50;;;;;;;12.57;5.45;;;;;;;;;;5033575;28;20041;-65
2022/03/12 08:39:16;;;;;;;10.80;5.03;;;13.40;67.80;;;;;;5016511;28;20042;-61
2022/03/12 08:41:42;;;;;;;11.02;5.90;;;13.50;67.50;;;;;;5033359;28;20410;-63
2022/03/12 08:44:09;;;;;;;12.68;5.30;;;14.00;67.60;;;;;;5033980;28;20395;-62
2022/03/12 08:46:35;;;;;;;10.88;5.35;;;13.90;67.40;;;;;;5015475;28;20411;-64
2022/03/12 08:49:02;;;;;;;11.65;5.28;;;14.10;67.40;;;;;;5035024;28;20471;-62
2022/03/12 08:51:29;;;;;;;9.70;5.55;;;;;;;;;;5044576;28;20040;-62
2022/03/12 08:53:55;;;;;;;11.13;5.00;;;14.30;67.70;;;;;;5033879;28;20053;-62
2022/03/12 08:56:21;;;;;;;12.75;6.03;;;14.40;67.20;;;;;;5032921;28;20044;-69
2022/03/12 08:58:47;;;;;;;8.32;5.35;;;14.50;67.20;;;;;;5033733;28;20041;-63
2022/03/12 09:01:13;;;;;;;9.63;6.10;;;14.30;67.10;;;;;;5034333;28;20041;-65
2022/03/12 09:03:39;;;;;;;10.23;5.68;;;14.30;66.90;;;;;;5033439;28;20061;-68
2022/03/12 09:06:05;;;;;;;9.32;6.03;;;14.40;66.80;;;;;;5015615;28;20040;-64
2022/03/12 09:08:31;;;;;;;12.98;6.15;;;14.40;66.70;;;;;;5033636;28;20038;-65
2022/03/12 09:10:58;;;;;;;8.95;5.70;;;14.20;66.50;;;;;;5033348;28;20395;-68
2022/03/12 09:13:24;;;;;;;10.20;5.78;;;14.40;66.60;;;;;;5033450;28;20056;-61
2022/03/12 09:15:51;;;;;;;11.70;6.45;;;14.50;66.60;;;;;;5033310;28;20124;-62
2022/03/12 09:18:17;;;;;;;8.85;5.85;;;14.60;66.60;;;;;;5033056;28;20442;-61
2022/03/12 09:20:46;;;;;;;9.65;6.43;;;14.70;66.60;;;;;;5033550;28;20041;-65
2022/03/12 09:23:12;;;;;;;9.75;5.72;;;14.70;66.50;;;;;;5033172;28;20113;-63
2022/03/12 09:25:38;;;;;;;9.50;6.32;;;14.60;63.80;;;;;;5015775;28;20042;-63
2022/03/12 09:28:04;;;;;;;12.48;5.95;;;14.80;66.50;;;;;;5032694;28;20125;-66
2022/03/12 09:30:30;;;;;;;8.40;5.57;;;14.60;63.80;;;;;;5033323;28;20049;-65
2022/03/12 09:32:55;;;;;;;10.40;6.45;;;14.80;66.50;;;;;;5033482;28;20491;-65
2022/03/12 09:35:22;;;;;;;8.63;5.65;;;14.50;66.30;;;;;;5014869;28;20475;-64
2022/03/12 09:37:48;;;;;;;13.27;6.45;;;15.00;64.00;;;;;;5033251;28;20445;-65
2022/03/12 09:40:17;;;;;;;10.38;6.72;;;14.70;66.40;;;;;;5032927;28;20049;-65
2022/03/12 09:42:43;;;;;;;12.10;7.03;;;14.60;63.70;;;;;;5033329;28;20050;-64
2022/03/12 09:45:10;;;;;;;11.15;6.50;;;14.50;66.30;;;;;;5033594;28;20052;-65
2022/03/12 09:47:35;;;;;;;10.18;6.15;;;14.90;66.60;;;;;;5033113;28;20037;-66
2022/03/12 09:50:04;;;;;;;12.75;6.95;;;15.10;66.70;;;;;;5037005;28;20048;-66
2022/03/12 09:52:31;;;;;;;10.70;6.70;;;;;;;;;;5035574;28;20392;-65
2022/03/12 09:54:57;;;;;;;13.63;6.88;;;15.10;66.70;;;;;;5020414;28;20191;-65
2022/03/12 09:57:23;;;;;;;12.50;6.50;;;15.00;66.70;;;;;;5047976;28;20132;-64
2022/03/12 09:59:49;;;;;;;10.40;7.25;;;14.70;66.70;;;;;;5036666;28;20068;-65
2022/03/12 10:02:15;;;;;;;10.52;6.63;;;15.10;66.40;;;;;;5036697;28;20045;-65
2022/03/12 10:04:40;;;;;;;11.85;7.40;;;15.30;67.10;;;;;;5036492;28;20115;-66
2022/03/12 10:07:08;;;;;;;11.00;7.10;;;15.30;67.30;;;;;;5035476;28;20045;-64
2022/03/12 10:09:34;;;;;;;9.23;6.75;;;14.70;66.90;;;;;;5035397;28;20120;-64
2022/03/12 10:12:01;;;;;;;13.05;6.78;;;14.80;66.90;;;;;;5036279;28;20376;-63
2022/03/12 10:14:27;;;;;;;10.05;6.80;;;15.10;64.80;;;;;;5036538;28;20054;-63
2022/03/12 10:16:53;;;;;;;11.27;6.78;;;;;;;;;;5018484;28;20549;-63
2022/03/12 10:19:20;;;;;;;12.07;6.78;;;15.50;68.10;;;;;;5036358;28;20061;-62
2022/03/12 10:21:47;;;;;;;10.00;6.95;;;15.30;67.70;;;;;;5036274;28;20049;-63
2022/03/12 10:24:13;;;;;;;9.63;6.80;;;;;;;;;;5036125;28;20045;-63
2022/03/12 10:26:39;;;;;;;12.30;7.22;;;15.50;65.50;;;;;;5036022;28;20534;-64
2022/03/12 10:29:05;;;;;;;10.52;6.47;;;;;;;;;;5036578;28;20037;-64
2022/03/12 10:31:32;;;;;;;10.77;6.60;;;15.50;68.00;;;;;;5036417;28;20041;-63
2022/03/12 10:34:23;;;;;;;10.30;6.45;;;15.40;68.00;;;;;;5036205;28;20056;-65
2022/03/12 10:36:58;;;;;;;12.20;6.65;;;15.60;65.30;;;;;;5034644;28;20045;-64
2022/03/12 10:39:32;;;;;;;9.48;6.32;;;15.80;68.30;;;;;;5007421;28;20102;-62
2022/03/12 10:42:07;;;;;;;10.85;6.93;;;15.80;63.80;;;;;;5035706;28;20057;-64
2022/03/12 10:44:40;;;;;;;10.60;6.38;;;15.60;68.50;;;;;;5036127;28;20103;-65
2022/03/12 10:47:17;;;;;;;;;;;15.90;66.40;;;;;;5017408;28;20057;-62
2022/03/12 10:49:58;;;;;;;13.70;7.43;;;15.90;66.20;;;;;;5035144;28;19921;-64
2022/03/12 10:52:27;;;;;;;13.15;7.22;;;15.80;67.00;;;;;;5034612;28;20053;-64
2022/03/12 10:54:53;;;;;;;11.02;6.85;;;15.80;69.40;;;;;;5036032;28;20046;-61
2022/03/12 10:57:19;;;;;;;10.85;6.63;;;16.10;69.80;;;;;;5035599;28;20048;-62
2022/03/12 10:59:45;;;;;;;12.65;6.80;;;15.90;70.00;;;;;;5034682;28;20049;-62
2022/03/12 11:02:11;;;;;;;11.63;6.70;;;15.70;67.30;;;;;;5035441;28;20187;-66
2022/03/12 11:04:38;;;;;;;11.68;6.55;;;16.10;69.90;;;;;;5018076;28;20122;-63
2022/03/12 11:07:26;;;;;;;14.07;7.82;;;16.20;70.20;;;;;;5037399;28;20116;-66
2022/03/12 11:09:53;;;;;;;10.55;6.30;;;16.10;70.10;;;;;;5042488;28;20065;-62
2022/03/12 11:12:35;;;;;;;14.52;6.72;;;16.30;70.50;;;;;;5035474;28;20210;-67
2022/03/12 11:15:16;;;;;;;10.60;5.78;;;16.20;68.40;;;;;;5034949;28;20561;-64
2022/03/12 11:17:50;;;;;;;15.73;6.93;;;16.20;67.60;;;;;;5035276;28;20046;-61
2022/03/12 11:20:27;;;;;;;10.13;6.22;;;16.20;70.50;;;;;;5017551;28;20558;-62
2022/03/12 11:23:27;;;;;;;8.90;6.05;;;16.40;65.90;;;;;;5035218;28;20052;-63
2022/03/12 11:25:57;;;;;;;12.90;6.05;;;16.40;70.60;;;;;;5034682;28;20076;-62
2022/03/12 11:28:24;;;;;;;10.30;5.97;;;16.50;71.20;;;;;;5017368;28;20057;-62
2022/03/12 11:30:50;;;;;;;9.23;6.15;;;16.70;70.80;;;;;;5035341;28;20046;-61
2022/03/12 11:33:16;;;;;;;11.23;6.40;;;16.60;70.90;;;;;;5035868;28;20051;-64
2022/03/12 11:35:46;;;;;;;11.30;6.40;;;16.70;68.40;;;;;;5017398;28;20045;-65
2022/03/12 11:38:20;;;;;;;10.93;6.22;;;17.00;70.80;;;;;;4985342;28;20049;-64
2022/03/12 11:40:48;;;;;;;10.70;6.15;;;17.00;70.90;;;;;;5034847;28;20124;-62
2022/03/12 11:43:30;;;;;;;9.82;6.68;;;17.00;70.80;;;;;;5034789;28;20069;-61
2022/03/12 11:45:59;;;;;;;9.25;6.28;;;17.20;71.10;;;;;;5035028;28;20557;-61
2022/03/12 11:48:28;;;;;;;11.85;5.80;;;17.00;71.10;;;;;;5034235;28;20045;-61
2022/03/12 11:50:54;;;;;;;9.00;5.45;;;17.50;68.30;;;;;;5034706;28;20045;-62
2022/03/12 11:53:20;;;;;;;9.48;5.80;;;17.40;71.50;;;;;;5016721;28;20045;-61
2022/03/12 11:55:47;;;;;;;8.68;5.40;;;17.60;72.20;;;;;;5035441;28;20050;-61
2022/03/12 11:58:13;;;;;;;9.60;6.50;;;17.60;71.30;;;;;;5034427;28;20049;-62
2022/03/12 12:00:40;;;;;;;9.13;5.95;;;17.50;71.40;;;;;;5034845;28;20053;-63
2022/03/12 12:03:08;;;;;;;9.07;5.90;;;17.50;72.10;;;;;;5034675;28;20056;-61
2022/03/12 12:05:34;;;;;;;10.10;5.95;;;;;;;;;;5034073;28;20399;-64
2022/03/12 12:08:01;;;;;;;11.65;6.43;;;17.80;71.20;;;;;;5032273;28;20045;-62
2022/03/12 12:10:29;;;;;;;12.05;6.60;;;17.80;71.30;;;;;;5034120;28;20041;-64
2022/03/12 12:12:56;;;;;;;9.05;5.90;;;17.80;71.50;;;;;;5034191;28;20072;-62
2022/03/12 12:15:34;;;;;;;12.20;6.95;;;;;;;;;;5034156;28;20521;-62
2022/03/12 12:18:02;;;;;;;11.75;5.97;;;18.10;71.60;;;;;;5039898;28;20048;-61
2022/03/12 12:20:29;;;;;;;10.90;6.30;;;18.00;68.90;;;;;;5040175;28;20038;-61
2022/03/12 12:22:58;;;;;;;10.05;5.60;;;18.20;71.40;;;;;;5034358;28;20056;-62
2022/03/12 12:25:25;;;;;;;9.98;5.78;;;18.20;71.50;;;;;;5034338;28;20364;-61
2022/03/12 12:27:53;;;;;;;9.10;6.00;;;17.90;71.00;;;;;;5033070;28;20120;-62
2022/03/12 12:30:25;;;;;;;11.20;6.60;;;18.40;71.30;;;;;;5031468;28;20103;-64
2022/03/12 12:32:51;;;;;;;14.37;7.33;;;18.20;71.20;;;;;;5030482;28;20132;-61
2022/03/12 12:35:21;;;;;;;11.70;7.85;;;17.60;71.00;;;;;;5013678;28;20424;-65
2022/03/12 12:37:57;;;;;;;12.55;7.72;;;17.60;71.20;;;;;;5013237;28;20051;-65
2022/03/12 12:40:24;;;;;;;12.65;7.80;;;17.80;71.30;;;;;;5030340;28;20463;-61
2022/03/12 12:42:51;;;;;;;12.88;7.97;;;17.30;68.50;;;;;;5031175;28;20057;-66
2022/03/12 12:45:21;;;;;;;12.02;8.40;;;17.70;72.10;;;;;;5030445;28;20037;-67
2022/03/12 12:47:48;;;;;;;13.05;8.15;;;17.60;72.40;;;;;;5030521;28;20041;-65
2022/03/12 12:50:26;;;;;;;11.90;7.60;;;17.50;68.00;;;;;;5030404;28;20437;-68
2022/03/12 12:53:12;;;;;;;12.27;8.27;;;17.40;68.70;;;;;;5031626;28;20076;-64